»·PEaware :: MRR18 CAT4-13W

MRR18 :: CAT4-13W

FLIGHT INFORMATION

Flight Status: Arrived
Operator:
San Juan Airlines
More flights by this operator :: More flights under this callsign
Pilot: Alex L. (5269)
Aircraft: CESSNA 207 TURBO STATIONAIR
(C207)
More flights by this aircraft type
Origin: CAT4 Qualicum Beach
Canada
Destination: 13W Camano I
United States
More flights between these airports :: More routes between these airports
Route: +
File this flight plan on PilotEdge
Remarks: San Juan Virtual Airlines and FSEconomy flight. Live streaming on www.twitch.tv / alexsflyingclub
Altitude:
(Current/Filed)
5,500ft
Speed:
(Current/Filed)
144kts
Departed: 18-Jan-17 06:23 PM
Arrived: 18-Jan-17 07:19 PM
Distance/Time
Traveled:
101nm/0:56
Distance/Time
To Go:
Arrived

Flight Plot

Page will automatically refresh every two minutes.


Map Options




Map Legend


Flown Route
Filed Route
Departure Airport
Arrival Airport
Navaid (VOR, NDB)
Fix

Horizontal Profiles

Position Reports

Time Latitude Longitude Heading Altitude Ground
Speed
18-Jan-17 18:11 49.338488 -124.393674 37 174ft 0kts
18-Jan-17 18:12 49.338489 -124.393672 37 174ft 0kts
18-Jan-17 18:13 49.338490 -124.393671 37 174ft 0kts
18-Jan-17 18:14 49.338491 -124.393670 38 174ft 0kts
18-Jan-17 18:15 49.338492 -124.393668 38 174ft 0kts
18-Jan-17 18:16 49.338493 -124.393667 38 174ft 0kts
18-Jan-17 18:17 49.338515 -124.393637 45 174ft 2kts
18-Jan-17 18:18 49.337295 -124.392387 127 174ft 8kts
18-Jan-17 18:19 49.335642 -124.389170 128 174ft 7kts
18-Jan-17 18:20 49.335043 -124.388558 196 174ft 0kts
18-Jan-17 18:21 49.335042 -124.388559 196 174ft 0kts
18-Jan-17 18:22 49.334891 -124.388967 291 174ft 2kts
18-Jan-17 18:23 49.344668 -124.408155 306 436ft 101kts
18-Jan-17 18:24 49.367098 -124.430213 37 1020ft 102kts
18-Jan-17 18:25 49.363167 -124.386773 114 1398ft 112kts
18-Jan-17 18:26 49.350494 -124.338668 113 1561ft 127kts
18-Jan-17 18:27 49.335861 -124.287638 124 1527ft 133kts
18-Jan-17 18:28 49.315605 -124.241655 127 1545ft 129kts
18-Jan-17 18:29 49.296098 -124.209117 140 1662ft 122kts
18-Jan-17 18:30 49.270707 -124.170168 138 1449ft 129kts
18-Jan-17 18:31 49.261387 -124.116826 104 1469ft 128kts
18-Jan-17 18:32 49.256616 -124.062245 104 1446ft 128kts
18-Jan-17 18:33 49.250483 -124.009319 107 1460ft 130kts
18-Jan-17 18:34 49.238212 -123.957933 125 1315ft 127kts
18-Jan-17 18:35 49.211578 -123.927569 139 847ft 127kts
18-Jan-17 18:36 49.187993 -123.892297 139 818ft 122kts
18-Jan-17 18:37 49.159895 -123.858136 148 1049ft 128kts
18-Jan-17 18:38 49.133354 -123.820274 135 1106ft 139kts
18-Jan-17 18:39 49.105540 -123.773865 140 696ft 145kts
18-Jan-17 18:40 49.077644 -123.733067 142 704ft 130kts
18-Jan-17 18:41 49.050572 -123.694685 140 754ft 139kts
18-Jan-17 18:42 49.023707 -123.654364 140 741ft 134kts
18-Jan-17 18:43 48.995696 -123.617330 145 784ft 131kts
18-Jan-17 18:44 48.966117 -123.584274 148 847ft 141kts
18-Jan-17 18:45 48.937320 -123.543698 134 686ft 142kts
18-Jan-17 18:46 48.917189 -123.494981 121 749ft 129kts
18-Jan-17 18:47 48.897189 -123.451399 133 825ft 124kts
18-Jan-17 18:48 48.872891 -123.415214 126 945ft 121kts
18-Jan-17 18:49 48.856107 -123.369653 114 985ft 128kts
18-Jan-17 18:50 48.841561 -123.319142 116 717ft 132kts
18-Jan-17 18:51 48.830895 -123.268052 106 785ft 120kts
18-Jan-17 18:52 48.811791 -123.228025 130 897ft 124kts
18-Jan-17 18:53 48.796109 -123.181715 117 1128ft 112kts
18-Jan-17 18:54 48.781810 -123.137982 123 1351ft 120kts
18-Jan-17 18:55 48.762818 -123.098396 131 1617ft 118kts
18-Jan-17 18:56 48.739545 -123.060834 139 1639ft 119kts
18-Jan-17 18:57 48.720141 -123.016810 106 1426ft 135kts
18-Jan-17 18:58 48.719167 -122.961515 88 1512ft 124kts
18-Jan-17 18:59 48.722489 -122.909498 88 1750ft 120kts
18-Jan-17 19:00 48.720095 -122.859200 115 1802ft 111kts
18-Jan-17 19:01 48.707722 -122.814347 116 1238ft 118kts
18-Jan-17 19:02 48.694602 -122.769114 119 1311ft 120kts
18-Jan-17 19:03 48.678418 -122.722069 122 1367ft 118kts
18-Jan-17 19:04 48.662519 -122.677499 123 1535ft 123kts
18-Jan-17 19:05 48.645066 -122.631745 125 1553ft 125kts
18-Jan-17 19:06 48.624087 -122.587829 135 1380ft 131kts
18-Jan-17 19:07 48.599880 -122.549965 138 1541ft 118kts
18-Jan-17 19:08 48.574866 -122.516349 139 1585ft 128kts
18-Jan-17 19:09 48.549293 -122.480841 141 1623ft 126kts
18-Jan-17 19:10 48.522709 -122.443724 142 1523ft 131kts
18-Jan-17 19:11 48.494799 -122.411666 146 1500ft 129kts
18-Jan-17 19:12 48.463831 -122.391075 182 1485ft 119kts
18-Jan-17 19:13 48.432220 -122.402788 188 1200ft 114kts
18-Jan-17 19:14 48.398228 -122.412104 185 1290ft 127kts
18-Jan-17 19:15 48.361967 -122.422136 187 1167ft 134kts
18-Jan-17 19:16 48.325533 -122.430567 187 1106ft 119kts
18-Jan-17 19:17 48.296036 -122.435479 182 983ft 98kts
18-Jan-17 19:18 48.269476 -122.435831 180 591ft 85kts
18-Jan-17 19:19 48.255182 -122.436083 178 148ft 6kts
18-Jan-17 19:20 48.254893 -122.437931 267 148ft 4kts
18-Jan-17 19:21 48.254777 -122.438202 175 148ft 0kts
18-Jan-17 19:22 48.254777 -122.438202 175 148ft 0kts

Navigation Log

Ident Type
Flight plan parsing failed, navigation log unavailable